createdAt,value
2023-02-14T02:00:50.130Z,49.02
2023-02-14T02:02:33.973Z,44.90
2023-02-14T02:03:41.746Z,46.08
2023-02-14T02:04:47.098Z,49.90
2023-02-14T02:05:53.965Z,46.92
2023-02-14T02:07:00.666Z,47.42
2023-02-14T02:08:03.169Z,47.08
2023-02-14T02:09:28.910Z,44.77
2023-02-14T02:10:31.297Z,45.62
2023-02-14T02:11:34.496Z,43.92
2023-02-14T02:12:38.259Z,44.53
2023-02-14T02:13:40.667Z,44.82
2023-02-14T02:14:43.672Z,45.67
2023-02-14T02:15:54.425Z,45.50
2023-02-14T02:17:06.448Z,47.28
2023-02-14T02:18:19.049Z,46.35
2023-02-14T02:19:33.490Z,45.42
2023-02-14T02:20:41.896Z,44.55
2023-02-14T02:22:21.809Z,45.17
2023-02-14T02:23:42.210Z,43.32
2023-02-14T02:24:50.241Z,42.30
2023-02-14T02:26:30.064Z,41.37
2023-02-14T02:27:53.632Z,40.28
2023-02-14T02:29:19.951Z,42.32
2023-02-14T02:30:43.870Z,41.37
2023-02-14T02:32:08.262Z,41.93
2023-02-14T02:33:13.281Z,42.95
2023-02-14T02:34:53.177Z,41.05
2023-02-14T02:36:09.085Z,42.65
2023-02-14T02:37:38.593Z,42.02
2023-02-14T02:39:08.314Z,42.25
2023-02-14T02:40:29.073Z,42.17
2023-02-14T02:41:46.813Z,43.92
2023-02-14T02:43:02.789Z,44.58
2023-02-14T02:44:16.919Z,45.28
2023-02-14T02:45:29.448Z,46.77
2023-02-14T02:46:49.101Z,47.73
2023-02-14T02:48:11.163Z,46.68
2023-02-14T02:50:08.795Z,47.75
2023-02-14T02:51:36.938Z,48.52
2023-02-14T02:53:07.328Z,50.87
2023-02-14T02:54:26.302Z,52.50
2023-02-14T02:55:53.194Z,52.52
2023-02-14T02:57:00.125Z,51.87
2023-02-14T02:58:03.366Z,50.37
2023-02-14T02:59:20.964Z,49.95
2023-02-14T03:00:25.170Z,45.08
2023-02-14T03:01:31.672Z,46.32
2023-02-14T03:03:00.189Z,47.42
2023-02-14T03:04:25.643Z,45.82
2023-02-14T03:05:29.433Z,46.70
2023-02-14T03:06:32.981Z,45.75
2023-02-14T03:07:37.536Z,46.73
2023-02-14T03:08:39.854Z,45.07
2023-02-14T03:09:42.258Z,46.23
2023-02-14T03:10:45.099Z,46.65
2023-02-14T03:12:25.850Z,45.25
2023-02-14T03:13:37.641Z,46.55
2023-02-14T03:14:55.646Z,46.75
2023-02-14T03:16:27.317Z,80.07
2023-02-14T03:17:36.920Z,49.93
2023-02-14T03:19:24.048Z,55.52
2023-02-14T03:20:41.817Z,84.60
2023-02-14T03:22:05.788Z,81.65
2023-02-14T03:23:30.030Z,77.90
2023-02-14T03:25:03.794Z,84.02
2023-02-14T03:26:19.046Z,84.73
2023-02-14T03:27:33.002Z,82.57
2023-02-14T03:29:05.324Z,74.47
2023-02-14T03:30:33.590Z,75.55
2023-02-14T03:31:56.102Z,73.88
2023-02-14T03:33:14.178Z,77.05
2023-02-14T03:34:35.546Z,83.02
2023-02-14T03:36:02.055Z,71.73
2023-02-14T03:37:20.236Z,72.23
2023-02-14T03:38:31.697Z,69.90
2023-02-14T03:39:45.873Z,68.77
2023-02-14T03:40:54.768Z,66.97
2023-02-14T03:42:06.353Z,68.08
2023-02-14T03:43:13.334Z,66.78
2023-02-14T03:44:21.520Z,67.23
2023-02-14T03:45:32.929Z,66.80
2023-02-14T03:46:44.666Z,67.28
2023-02-14T03:47:48.861Z,64.78
2023-02-14T03:48:54.172Z,66.33
2023-02-14T03:50:04.437Z,65.60
2023-02-14T03:51:09.685Z,64.07
2023-02-14T03:52:14.185Z,63.15
2023-02-14T03:53:21.846Z,62.05
2023-02-14T03:54:25.926Z,59.95
2023-02-14T03:55:54.536Z,60.98
2023-02-14T03:57:21.983Z,61.47
2023-02-14T03:58:32.860Z,59.58
2023-02-14T03:59:35.608Z,59.32
2023-02-14T04:00:41.273Z,58.55
2023-02-14T04:01:49.838Z,58.47
2023-02-14T04:02:56.384Z,58.53
2023-02-14T04:04:00.772Z,57.45
2023-02-14T04:05:15.567Z,56.68
2023-02-14T04:06:20.152Z,58.82
2023-02-14T04:07:23.897Z,58.17
2023-02-14T04:08:28.842Z,56.37
2023-02-14T04:09:31.207Z,58.22
2023-02-14T04:10:34.077Z,57.87
2023-02-14T04:11:38.614Z,58.62
2023-02-14T04:12:40.998Z,58.85
2023-02-14T04:13:43.360Z,58.40
2023-02-14T04:14:45.753Z,59.83
2023-02-14T04:15:48.172Z,61.75
2023-02-14T04:17:09.580Z,60.22
2023-02-14T04:18:30.353Z,60.70
2023-02-14T04:19:32.728Z,62.23
2023-02-14T04:20:35.453Z,60.42
2023-02-14T04:21:37.844Z,61.60
2023-02-14T04:22:40.203Z,66.52
2023-02-14T04:23:42.649Z,71.12
2023-02-14T04:24:45.081Z,63.53
2023-02-14T04:25:47.507Z,61.30
2023-02-14T04:27:10.168Z,61.15
2023-02-14T04:28:13.613Z,58.28
2023-02-14T04:29:16.019Z,61.50
2023-02-14T04:30:20.885Z,62.00
2023-02-14T04:31:23.399Z,63.30
2023-02-14T04:32:25.834Z,62.92
2023-02-14T04:33:28.298Z,62.25
2023-02-14T04:34:30.671Z,62.23
2023-02-14T04:35:33.053Z,62.53
2023-02-14T04:36:35.374Z,62.93
2023-02-14T04:37:37.912Z,64.10
2023-02-14T04:38:40.502Z,62.95
2023-02-14T04:39:42.856Z,63.33
2023-02-14T04:40:45.250Z,63.93
2023-02-14T04:41:47.583Z,68.68
2023-02-14T04:42:49.982Z,77.18
2023-02-14T04:43:52.314Z,81.75
2023-02-14T04:44:54.674Z,73.87
2023-02-14T04:45:57.133Z,61.62
2023-02-14T04:46:59.705Z,59.43
2023-02-14T04:48:02.034Z,60.38
2023-02-14T04:49:04.498Z,63.15
2023-02-14T04:50:07.620Z,63.33
2023-02-14T04:51:10.133Z,66.85
2023-02-14T04:52:13.288Z,68.12
2023-02-14T04:53:15.624Z,64.72
2023-02-14T04:54:18.009Z,65.97
2023-02-14T04:55:20.362Z,65.77
2023-02-14T04:56:22.757Z,64.37
2023-02-14T04:57:25.148Z,65.03
2023-02-14T04:58:27.573Z,67.48
2023-02-14T04:59:30.126Z,67.82
2023-02-14T05:00:32.512Z,69.18
2023-02-14T05:01:34.908Z,71.47
2023-02-14T05:02:37.396Z,71.20
2023-02-14T05:03:39.741Z,74.32
2023-02-14T05:04:42.175Z,72.90
2023-02-14T05:05:44.526Z,73.72
2023-02-14T05:06:47.073Z,71.32
2023-02-14T05:07:49.455Z,67.63
2023-02-14T05:08:51.795Z,63.27
2023-02-14T05:09:54.171Z,67.27
2023-02-14T05:10:56.687Z,70.12
2023-02-14T05:11:59.206Z,64.98
2023-02-14T05:13:02.024Z,63.73
2023-02-14T05:14:04.492Z,62.27
2023-02-14T05:15:07.103Z,59.22
2023-02-14T05:16:09.553Z,59.22
2023-02-14T05:17:11.985Z,58.53
2023-02-14T05:18:14.467Z,58.58
2023-02-14T05:19:16.840Z,59.25
2023-02-14T05:20:19.277Z,62.08
2023-02-14T05:21:24.071Z,62.22
2023-02-14T05:22:26.400Z,63.47
2023-02-14T05:23:28.763Z,61.72
2023-02-14T05:24:31.296Z,60.55
2023-02-14T05:25:33.640Z,60.43
2023-02-14T05:26:35.972Z,61.23
2023-02-14T05:27:38.377Z,58.58
2023-02-14T05:28:41.172Z,59.82
2023-02-14T05:29:43.577Z,59.63
2023-02-14T05:30:46.524Z,57.58
2023-02-14T05:31:49.033Z,59.18
2023-02-14T05:32:51.418Z,73.93
2023-02-14T05:33:53.799Z,66.30
2023-02-14T05:34:56.177Z,63.82
2023-02-14T05:36:00.298Z,59.42
2023-02-14T05:37:03.671Z,57.58
2023-02-14T05:38:06.100Z,58.25
2023-02-14T05:39:08.434Z,56.70
2023-02-14T05:40:13.518Z,57.82
2023-02-14T05:41:15.948Z,54.18
2023-02-14T05:42:18.344Z,54.68
2023-02-14T05:43:21.561Z,55.80
2023-02-14T05:44:23.986Z,55.05
2023-02-14T05:45:26.512Z,57.65
2023-02-14T05:46:28.931Z,58.32
2023-02-14T05:47:31.529Z,58.12
2023-02-14T05:48:34.209Z,56.98
2023-02-14T05:49:36.778Z,56.22
2023-02-14T05:50:39.324Z,55.27
2023-02-14T05:51:43.747Z,55.43
2023-02-14T05:52:46.086Z,60.32
2023-02-14T05:53:48.491Z,67.50
2023-02-14T05:54:51.125Z,70.30
2023-02-14T05:55:53.496Z,68.65
2023-02-14T05:56:56.488Z,68.93
2023-02-14T05:57:59.016Z,73.73
2023-02-14T05:59:01.409Z,77.23
2023-02-14T06:00:06.628Z,76.83
2023-02-14T06:01:09.129Z,78.98
2023-02-14T06:02:11.939Z,78.63
2023-02-14T06:03:14.296Z,77.40
2023-02-14T06:04:16.707Z,74.15
2023-02-14T06:05:20.271Z,76.95
2023-02-14T06:06:22.609Z,80.05
2023-02-14T06:07:25.224Z,70.98
2023-02-14T06:08:27.644Z,62.58
2023-02-14T06:09:30.066Z,60.23
2023-02-14T06:10:32.498Z,59.12
2023-02-14T06:11:34.954Z,57.75
2023-02-14T06:12:37.504Z,58.88
2023-02-14T06:13:41.595Z,58.38
2023-02-14T06:14:45.200Z,58.02
2023-02-14T06:15:47.630Z,58.27
2023-02-14T06:16:50.084Z,58.25
2023-02-14T06:17:54.508Z,57.52
2023-02-14T06:18:56.888Z,58.28
2023-02-14T06:19:59.235Z,57.80
2023-02-14T06:21:01.887Z,57.65
2023-02-14T06:22:04.922Z,58.08
2023-02-14T06:23:07.264Z,56.63
2023-02-14T06:24:09.718Z,57.67
2023-02-14T06:25:12.070Z,57.67
2023-02-14T06:26:14.445Z,57.60
2023-02-14T06:27:17.020Z,58.92
2023-02-14T06:28:19.370Z,57.52
2023-02-14T06:29:21.752Z,54.53
2023-02-14T06:30:24.711Z,57.22
2023-02-14T06:31:27.336Z,57.50
2023-02-14T06:32:29.740Z,58.32
2023-02-14T06:33:32.091Z,59.13
2023-02-14T06:34:34.590Z,59.03
2023-02-14T06:35:36.953Z,60.65
2023-02-14T06:36:39.276Z,59.98
2023-02-14T06:37:45.333Z,61.22
2023-02-14T06:38:48.688Z,62.02
2023-02-14T06:39:52.918Z,60.08
2023-02-14T06:40:55.488Z,61.32
2023-02-14T06:41:57.878Z,60.65
2023-02-14T06:43:00.426Z,60.80
2023-02-14T06:44:03.852Z,62.77
2023-02-14T06:45:10.101Z,77.85
2023-02-14T06:46:12.595Z,70.62
2023-02-14T06:47:15.217Z,69.97
2023-02-14T06:48:21.695Z,67.72
2023-02-14T06:49:24.666Z,74.87
2023-02-14T06:50:27.313Z,77.43
2023-02-14T06:51:34.306Z,78.98
2023-02-14T06:52:38.022Z,78.95
2023-02-14T06:53:44.926Z,80.22
2023-02-14T06:54:49.835Z,79.65
2023-02-14T06:55:52.308Z,79.93
2023-02-14T06:56:56.224Z,80.95
2023-02-14T06:58:01.755Z,78.92
2023-02-14T06:59:11.152Z,82.93
2023-02-14T07:00:16.752Z,84.58
2023-02-14T07:01:19.331Z,83.65
2023-02-14T07:02:24.697Z,83.67
2023-02-14T07:03:27.663Z,83.72
2023-02-14T07:04:31.362Z,84.05
2023-02-14T07:05:38.385Z,83.28
2023-02-14T07:06:40.892Z,84.02
2023-02-14T07:07:44.161Z,85.75
2023-02-14T07:08:48.591Z,84.30
2023-02-14T07:09:52.435Z,85.87
2023-02-14T07:10:58.737Z,86.25
2023-02-14T07:12:02.523Z,84.68
2023-02-14T07:13:05.598Z,85.62
2023-02-14T07:14:07.984Z,86.10
2023-02-14T07:15:12.411Z,85.57
2023-02-14T07:16:14.822Z,86.80
2023-02-14T07:17:17.420Z,88.15
2023-02-14T07:18:19.802Z,86.78
2023-02-14T07:19:22.204Z,85.23
2023-02-14T07:20:25.009Z,84.72
2023-02-14T07:21:27.407Z,86.62
2023-02-14T07:22:30.403Z,88.50
2023-02-14T07:23:33.148Z,86.05
2023-02-14T07:24:35.578Z,93.27
2023-02-14T07:25:38.410Z,99.02
2023-02-14T07:26:40.791Z,99.80
2023-02-14T07:27:43.741Z,103.60
2023-02-14T07:28:49.135Z,109.40
2023-02-14T07:29:51.735Z,101.55
2023-02-14T07:30:54.403Z,88.20
2023-02-14T07:31:57.074Z,92.70
2023-02-14T07:32:59.789Z,86.70
2023-02-14T07:34:02.255Z,74.57
2023-02-14T07:35:05.105Z,69.28
2023-02-14T07:36:08.826Z,66.85
2023-02-14T07:37:11.342Z,69.38
2023-02-14T07:38:13.780Z,68.07
2023-02-14T07:39:16.264Z,64.78
2023-02-14T07:40:20.133Z,66.52
2023-02-14T07:41:22.632Z,66.38
2023-02-14T07:42:25.056Z,65.80
2023-02-14T07:43:27.834Z,64.63
2023-02-14T07:44:30.356Z,73.18
2023-02-14T07:45:32.783Z,92.05
2023-02-14T07:46:35.349Z,90.13
2023-02-14T07:47:38.143Z,108.10
2023-02-14T07:48:40.657Z,112.52
2023-02-14T07:49:43.123Z,103.27
2023-02-14T07:50:45.636Z,70.98
2023-02-14T07:51:48.090Z,74.70
2023-02-14T07:52:50.663Z,81.40
2023-02-14T07:53:53.118Z,88.65
2023-02-14T07:54:57.425Z,93.95
2023-02-14T07:56:01.764Z,86.60
2023-02-14T07:57:07.218Z,62.25
2023-02-14T07:58:17.204Z,56.52
2023-02-14T07:59:25.955Z,51.42
2023-02-14T08:00:49.134Z,55.53
2023-02-14T08:01:51.885Z,56.78
2023-02-14T08:02:56.099Z,49.15
2023-02-14T08:03:59.416Z,49.12
2023-02-14T08:05:24.638Z,47.98
2023-02-14T08:07:23.117Z,46.45
2023-02-14T08:08:28.016Z,44.72
2023-02-14T08:09:30.571Z,44.87
2023-02-14T08:10:32.971Z,45.65
2023-02-14T08:12:04.891Z,45.18
2023-02-14T08:13:07.369Z,47.93
2023-02-14T08:14:09.767Z,46.93
2023-02-14T08:15:30.665Z,45.33
2023-02-14T08:16:34.765Z,44.45
2023-02-14T08:17:37.259Z,46.68
2023-02-14T08:18:41.597Z,43.95
2023-02-14T08:19:44.034Z,47.42
2023-02-14T08:20:49.859Z,44.05
2023-02-14T08:21:52.525Z,41.55
2023-02-14T08:22:54.995Z,42.42
2023-02-14T08:23:57.908Z,42.00
2023-02-14T08:25:00.271Z,41.15
2023-02-14T08:26:04.858Z,41.62
2023-02-14T08:27:07.406Z,40.18
2023-02-14T08:28:10.351Z,41.52
2023-02-14T08:29:13.370Z,41.25
2023-02-14T08:30:16.926Z,40.93
2023-02-14T08:31:36.083Z,41.38
2023-02-14T08:32:38.922Z,41.78
2023-02-14T08:33:43.434Z,43.02
2023-02-14T08:34:45.935Z,44.88
2023-02-14T08:35:48.817Z,43.48
2023-02-14T08:36:52.159Z,44.57
2023-02-14T08:37:55.087Z,44.47
2023-02-14T08:38:57.937Z,45.55
2023-02-14T08:40:00.465Z,46.60
2023-02-14T08:41:44.743Z,44.97
2023-02-14T08:42:47.703Z,42.00
2023-02-14T08:43:50.526Z,42.78
2023-02-14T08:45:10.767Z,45.67
2023-02-14T08:46:15.146Z,44.43
2023-02-14T08:47:23.555Z,44.82
2023-02-14T08:48:37.374Z,47.48
2023-02-14T08:49:42.670Z,48.70
2023-02-14T08:50:52.221Z,50.42
2023-02-14T08:52:03.094Z,47.30
2023-02-14T08:53:13.802Z,50.40
2023-02-14T08:54:26.985Z,56.90
2023-02-14T08:56:27.007Z,57.83
2023-02-14T08:57:38.824Z,50.65
2023-02-14T08:59:01.033Z,54.38
2023-02-14T09:00:07.408Z,53.32
2023-02-14T09:01:11.996Z,49.25
2023-02-14T09:02:17.958Z,44.97
2023-02-14T09:03:35.178Z,45.52
2023-02-14T09:04:39.788Z,41.20
2023-02-14T09:05:43.132Z,40.27
2023-02-14T09:06:45.631Z,40.15
2023-02-14T09:07:47.978Z,40.65
2023-02-14T09:08:50.741Z,40.88
2023-02-14T09:09:53.114Z,40.08
2023-02-14T09:10:55.597Z,40.50
2023-02-14T09:11:58.120Z,40.78
2023-02-14T09:13:00.481Z,39.43
2023-02-14T09:14:03.065Z,39.47
2023-02-14T09:15:05.834Z,39.80
2023-02-14T09:16:10.768Z,40.38
2023-02-14T09:17:13.818Z,40.83
2023-02-14T09:18:16.476Z,41.15
2023-02-14T09:19:18.909Z,40.92
2023-02-14T09:20:21.429Z,40.22
2023-02-14T09:21:26.976Z,39.65
2023-02-14T09:22:29.464Z,40.78
2023-02-14T09:23:31.915Z,41.17
2023-02-14T09:24:36.640Z,43.27
2023-02-14T09:25:39.092Z,45.58
2023-02-14T09:26:42.386Z,44.73
2023-02-14T09:27:44.773Z,44.13
2023-02-14T09:28:47.920Z,42.47
2023-02-14T09:29:50.449Z,43.62
2023-02-14T09:30:54.465Z,43.13
2023-02-14T09:31:59.823Z,44.18
2023-02-14T09:33:05.397Z,44.18
2023-02-14T09:34:07.826Z,45.52
2023-02-14T09:35:29.138Z,45.32
2023-02-14T09:36:34.063Z,43.37
2023-02-14T09:37:41.560Z,44.22
2023-02-14T09:38:45.727Z,44.52
2023-02-14T09:40:03.154Z,44.12
2023-02-14T09:41:35.389Z,41.67
2023-02-14T09:43:06.747Z,40.52
2023-02-14T09:44:26.742Z,41.18
2023-02-14T09:45:31.477Z,40.37
2023-02-14T09:46:43.353Z,40.73
2023-02-14T09:47:55.912Z,41.12
2023-02-14T09:49:01.307Z,43.45
2023-02-14T09:50:18.730Z,41.42
2023-02-14T09:51:27.420Z,42.60
2023-02-14T09:52:32.700Z,43.33
2023-02-14T09:54:12.600Z,40.83
2023-02-14T09:55:18.246Z,40.45
2023-02-14T09:56:40.047Z,39.85
2023-02-14T09:58:08.397Z,39.48
2023-02-14T09:59:35.028Z,36.92
2023-02-14T10:00:46.834Z,37.67
2023-02-14T10:01:58.976Z,37.90
2023-02-14T10:03:25.808Z,37.67
2023-02-14T10:04:48.034Z,37.85
2023-02-14T10:06:28.137Z,38.10
2023-02-14T10:07:57.852Z,40.12
2023-02-14T10:09:32.662Z,39.65
2023-02-14T10:10:43.266Z,40.78
2023-02-14T10:11:47.723Z,41.98
2023-02-14T10:13:00.844Z,41.73
2023-02-14T10:14:17.758Z,40.42
2023-02-14T10:15:34.658Z,45.40
2023-02-14T10:16:44.364Z,43.45
2023-02-14T10:17:52.910Z,41.12
2023-02-14T10:19:04.479Z,41.73
2023-02-14T10:20:20.051Z,42.00
2023-02-14T10:21:30.223Z,41.08
2023-02-14T10:22:42.915Z,41.03
2023-02-14T10:23:54.545Z,41.62
2023-02-14T10:25:08.660Z,40.95
2023-02-14T10:26:16.347Z,43.22
2023-02-14T10:27:42.384Z,40.98
2023-02-14T10:28:49.912Z,42.43
2023-02-14T10:29:52.287Z,41.92
2023-02-14T10:31:06.286Z,41.27
2023-02-14T10:32:14.848Z,42.60
2023-02-14T10:33:19.734Z,41.70
2023-02-14T10:34:46.339Z,41.23
2023-02-14T10:35:53.252Z,41.60
2023-02-14T10:37:27.993Z,43.45
2023-02-14T10:38:44.255Z,44.42
2023-02-14T10:40:00.743Z,42.42
2023-02-14T10:41:33.071Z,42.50
2023-02-14T10:42:55.261Z,41.75
2023-02-14T10:46:18.536Z,42.53
2023-02-14T10:49:43.110Z,42.15
2023-02-14T10:51:03.703Z,43.65
2023-02-14T10:52:29.250Z,41.37
2023-02-14T10:53:50.188Z,43.72
2023-02-14T10:54:58.573Z,47.37
2023-02-14T10:56:08.570Z,44.67
2023-02-14T10:57:33.039Z,42.98
2023-02-14T10:58:38.853Z,40.47
2023-02-14T11:00:02.753Z,42.25
2023-02-14T11:01:13.179Z,43.50
2023-02-14T11:02:18.174Z,46.53
2023-02-14T11:03:20.577Z,44.63
2023-02-14T11:04:26.440Z,43.42
2023-02-14T11:05:31.749Z,44.33
2023-02-14T11:06:34.567Z,44.22
2023-02-14T11:07:37.331Z,41.60
2023-02-14T11:08:42.347Z,45.27
2023-02-14T11:09:45.248Z,46.68
2023-02-14T11:10:48.478Z,43.15
2023-02-14T11:11:56.319Z,41.68
2023-02-14T11:12:58.833Z,42.10
2023-02-14T11:15:27.816Z,36.70
2023-02-14T11:16:36.703Z,42.98
2023-02-14T11:17:39.757Z,44.48
2023-02-14T11:18:42.466Z,41.70
2023-02-14T11:20:03.083Z,42.43
2023-02-14T11:21:10.963Z,44.78
2023-02-14T11:22:30.226Z,34.38
2023-02-14T11:23:35.986Z,33.48
2023-02-14T11:24:44.070Z,36.52
2023-02-14T11:25:55.147Z,35.20
2023-02-14T11:27:15.390Z,34.07
2023-02-14T11:28:24.105Z,32.47
2023-02-14T11:29:42.819Z,31.68
2023-02-14T11:30:56.992Z,31.67
2023-02-14T11:32:15.099Z,31.78
2023-02-14T11:33:30.708Z,32.75
2023-02-14T11:35:02.739Z,32.67
2023-02-14T11:36:13.803Z,31.17
2023-02-14T11:37:59.676Z,30.40
2023-02-14T11:39:23.705Z,30.97
2023-02-14T11:40:51.651Z,32.63
2023-02-14T11:41:59.967Z,33.18
2023-02-14T11:43:19.882Z,34.48
2023-02-14T11:44:30.645Z,32.88
2023-02-14T11:45:39.116Z,32.50
2023-02-14T11:46:52.810Z,32.95
2023-02-14T11:48:38.420Z,32.07
2023-02-14T11:54:07.610Z,33.72
2023-02-14T11:55:34.837Z,34.78
2023-02-14T11:57:14.050Z,34.38
2023-02-14T11:58:32.410Z,35.37
2023-02-14T11:59:51.638Z,35.75
2023-02-14T12:00:54.985Z,36.12
2023-02-14T12:02:02.900Z,35.40
2023-02-14T12:03:07.370Z,35.18
2023-02-14T12:04:18.954Z,35.55
2023-02-14T12:05:46.508Z,36.45
2023-02-14T12:06:49.601Z,37.57
2023-02-14T12:07:58.421Z,35.57
2023-02-14T12:09:25.790Z,35.27
2023-02-14T12:10:38.296Z,34.52
2023-02-14T12:11:41.414Z,35.02
2023-02-14T12:12:51.004Z,35.73
2023-02-14T12:13:56.151Z,34.40
2023-02-14T12:15:54.604Z,33.73
2023-02-14T12:17:11.979Z,33.28
2023-02-14T12:18:29.847Z,32.77
2023-02-14T12:19:54.445Z,30.43
2023-02-14T12:21:13.147Z,31.75
2023-02-14T12:22:20.957Z,32.22
2023-02-14T12:23:35.451Z,30.30
2023-02-14T12:25:00.366Z,32.58
2023-02-14T12:26:09.762Z,32.52
2023-02-14T12:27:12.287Z,33.57
2023-02-14T12:28:23.686Z,34.23
2023-02-14T12:29:42.152Z,33.63
2023-02-14T12:30:45.623Z,34.32
2023-02-14T12:31:58.928Z,33.58
2023-02-14T12:33:05.065Z,34.08
2023-02-14T12:34:11.312Z,33.20
2023-02-14T12:35:48.619Z,34.12
2023-02-14T12:37:29.518Z,31.83
2023-02-14T12:39:16.747Z,31.82
2023-02-14T12:40:21.543Z,30.87
2023-02-14T12:41:44.961Z,32.13
2023-02-14T12:44:07.371Z,31.85
2023-02-14T12:45:24.951Z,32.93
2023-02-14T12:46:40.652Z,32.02
2023-02-14T12:47:53.236Z,33.18
2023-02-14T12:49:28.913Z,34.37
2023-02-14T12:50:46.880Z,31.88
2023-02-14T12:52:00.228Z,33.12
2023-02-14T12:53:21.135Z,33.42
2023-02-14T12:54:44.308Z,32.45
2023-02-14T12:56:10.885Z,32.52
2023-02-14T12:57:43.863Z,32.60
2023-02-14T12:59:12.762Z,34.67
2023-02-14T13:01:29.204Z,34.90
2023-02-14T13:02:46.715Z,33.88
2023-02-14T13:04:13.741Z,34.07
2023-02-14T13:05:18.111Z,34.97
2023-02-14T13:07:10.735Z,34.60
2023-02-14T13:08:49.697Z,35.35
2023-02-14T13:10:32.752Z,34.27
2023-02-14T13:11:50.612Z,34.32
2023-02-14T13:13:04.505Z,34.98
2023-02-14T13:14:31.040Z,34.55
2023-02-14T13:15:53.157Z,35.72
2023-02-14T13:17:18.148Z,35.80
2023-02-14T13:18:48.881Z,35.52
2023-02-14T13:20:03.303Z,36.32
2023-02-14T13:21:13.159Z,36.30
2023-02-14T13:22:19.223Z,35.58
2023-02-14T13:23:35.662Z,34.65
2023-02-14T13:27:23.174Z,34.85
2023-02-14T13:29:50.630Z,34.38
2023-02-14T13:30:55.155Z,34.83
2023-02-14T13:32:01.974Z,34.55
2023-02-14T13:33:10.400Z,34.63
2023-02-14T13:34:28.240Z,34.60
2023-02-14T13:35:32.375Z,34.67
2023-02-14T13:36:36.515Z,35.83
2023-02-14T13:37:39.329Z,36.85
2023-02-14T13:38:48.689Z,36.22
2023-02-14T13:40:01.901Z,35.60
2023-02-14T13:41:05.575Z,37.23
2023-02-14T13:42:08.002Z,37.65
2023-02-14T13:43:10.411Z,36.20
2023-02-14T13:44:38.680Z,35.50
2023-02-14T13:45:41.101Z,36.33
2023-02-14T13:46:48.322Z,35.90
2023-02-14T13:48:03.641Z,35.32
2023-02-14T13:49:24.339Z,35.92
2023-02-14T13:50:27.348Z,35.07
2023-02-14T13:51:53.034Z,36.40
2023-02-14T13:52:55.867Z,35.35
2023-02-14T13:53:59.766Z,35.52
2023-02-14T13:55:07.842Z,35.82
2023-02-14T13:56:12.838Z,36.42
2023-02-14T13:57:36.564Z,35.98
2023-02-14T13:58:55.113Z,36.10
2023-02-14T14:00:19.100Z,35.73
2023-02-14T14:01:30.656Z,36.48
2023-02-14T14:02:44.290Z,36.65
2023-02-14T14:03:57.828Z,35.55
2023-02-14T14:05:03.108Z,35.97
2023-02-14T14:06:10.911Z,36.18
2023-02-14T14:07:13.554Z,35.98
2023-02-14T14:08:25.235Z,36.20
2023-02-14T14:09:43.344Z,35.47
2023-02-14T14:10:48.509Z,35.70
2023-02-14T14:11:51.518Z,34.55
2023-02-14T14:12:53.935Z,34.27
2023-02-14T14:14:01.879Z,34.47
2023-02-14T14:15:07.300Z,35.68
2023-02-14T14:16:27.709Z,35.57
2023-02-14T14:17:35.346Z,36.12
2023-02-14T14:18:43.392Z,34.02
2023-02-14T14:19:47.108Z,34.43
2023-02-14T14:20:49.677Z,34.38
2023-02-14T14:22:09.468Z,35.35
2023-02-14T14:23:45.168Z,34.70
2023-02-14T14:24:59.561Z,33.72
2023-02-14T14:26:02.471Z,34.43
2023-02-14T14:27:20.976Z,33.67
2023-02-14T14:28:26.532Z,34.73
2023-02-14T14:29:31.797Z,35.25
2023-02-14T14:30:34.487Z,34.62
2023-02-14T14:31:41.035Z,34.43
2023-02-14T14:32:45.889Z,33.62
2023-02-14T14:33:57.865Z,34.53
2023-02-14T14:35:04.929Z,33.77
2023-02-14T14:36:13.515Z,33.50
2023-02-14T14:37:19.486Z,34.85
2023-02-14T14:38:53.928Z,33.62
2023-02-14T14:40:02.453Z,35.05
2023-02-14T14:41:04.949Z,35.25
2023-02-14T14:42:18.200Z,33.42
2023-02-14T14:43:33.797Z,34.08
2023-02-14T14:44:38.082Z,34.43
2023-02-14T14:45:43.805Z,34.32
2023-02-14T14:46:46.884Z,34.95
2023-02-14T14:47:54.112Z,34.00
2023-02-14T14:48:57.518Z,33.40
2023-02-14T14:50:07.518Z,33.63
2023-02-14T14:51:21.958Z,33.75
2023-02-14T14:52:37.565Z,34.32
2023-02-14T14:53:47.185Z,33.83
2023-02-14T14:54:49.555Z,34.35
2023-02-14T14:55:52.290Z,33.33
2023-02-14T14:57:01.770Z,34.17
2023-02-14T14:58:09.318Z,34.47
2023-02-14T14:59:29.039Z,34.60
2023-02-14T15:00:34.584Z,33.52
2023-02-14T15:01:39.008Z,35.10
2023-02-14T15:02:41.351Z,34.82
2023-02-14T15:03:43.815Z,34.18
2023-02-14T15:04:46.193Z,33.93
2023-02-14T15:05:50.414Z,34.42
2023-02-14T15:06:52.875Z,34.60
2023-02-14T15:07:55.414Z,35.18
2023-02-14T15:08:57.834Z,34.20
2023-02-14T15:10:00.655Z,34.60
2023-02-14T15:11:11.081Z,36.03
2023-02-14T15:12:38.551Z,34.48
2023-02-14T15:13:53.535Z,34.13
2023-02-14T15:14:58.057Z,33.42
2023-02-14T15:16:03.480Z,33.23
2023-02-14T15:17:18.635Z,32.62
2023-02-14T15:18:21.707Z,33.17
2023-02-14T15:19:33.439Z,32.72
2023-02-14T15:20:36.994Z,31.87
2023-02-14T15:21:44.471Z,33.60
2023-02-14T15:22:49.897Z,34.78
2023-02-14T15:23:52.866Z,35.65
2023-02-14T15:24:55.756Z,35.77
2023-02-14T15:25:58.225Z,34.82
2023-02-14T15:27:02.109Z,34.22
2023-02-14T15:28:04.820Z,33.35
2023-02-14T15:29:07.597Z,33.27
2023-02-14T15:30:19.456Z,34.50
2023-02-14T15:31:22.255Z,34.35
2023-02-14T15:32:26.732Z,34.45
2023-02-14T15:33:31.563Z,32.77
2023-02-14T15:34:36.438Z,34.50
2023-02-14T15:35:42.399Z,35.68
2023-02-14T15:36:49.173Z,34.98
2023-02-14T15:37:52.399Z,33.12
2023-02-14T15:38:56.882Z,33.53
2023-02-14T15:39:59.925Z,33.17
2023-02-14T15:41:03.124Z,32.78
2023-02-14T15:42:06.375Z,32.57
2023-02-14T15:43:29.708Z,33.15
2023-02-14T15:44:32.636Z,32.62
2023-02-14T15:45:35.081Z,31.78
2023-02-14T15:46:39.551Z,31.55
2023-02-14T15:47:44.792Z,30.63
2023-02-14T15:48:48.020Z,30.27
2023-02-14T15:49:50.476Z,30.38
2023-02-14T15:50:56.597Z,30.18
2023-02-14T15:52:02.880Z,30.53
2023-02-14T15:53:17.424Z,29.67
2023-02-14T15:54:26.022Z,30.78
2023-02-14T15:55:28.945Z,30.03
2023-02-14T15:56:43.268Z,29.43
2023-02-14T15:57:55.379Z,28.00
2023-02-14T15:59:00.812Z,28.63
2023-02-14T16:00:11.663Z,28.82
2023-02-14T16:01:14.244Z,28.60
2023-02-14T16:02:17.327Z,28.68
2023-02-14T16:03:22.776Z,28.80
2023-02-14T16:04:31.372Z,30.07
2023-02-14T16:05:34.179Z,31.00
2023-02-14T16:06:44.781Z,30.17
2023-02-14T16:08:03.640Z,29.67
2023-02-14T16:09:26.198Z,30.05
2023-02-14T16:10:31.103Z,31.28
2023-02-14T16:11:38.151Z,30.27
2023-02-14T16:12:42.333Z,29.90
2023-02-14T16:13:46.579Z,28.90
2023-02-14T16:15:20.603Z,28.13
2023-02-14T16:16:23.100Z,29.03
2023-02-14T16:17:34.657Z,29.02
2023-02-14T16:18:45.971Z,27.28
2023-02-14T16:19:48.434Z,28.60
2023-02-14T16:20:51.432Z,30.72
2023-02-14T16:21:57.359Z,32.12
2023-02-14T16:23:22.227Z,36.20
2023-02-14T16:24:24.587Z,40.62
2023-02-14T16:25:26.962Z,38.93
2023-02-14T16:26:30.804Z,37.67
2023-02-14T16:27:33.648Z,35.23
2023-02-14T16:28:38.948Z,35.78
2023-02-14T16:29:41.632Z,34.22
2023-02-14T16:30:46.074Z,32.87
2023-02-14T16:32:16.510Z,33.93
2023-02-14T16:33:22.554Z,29.07
2023-02-14T16:34:26.563Z,28.78
2023-02-14T16:35:29.622Z,27.93
2023-02-14T16:36:33.688Z,27.97
2023-02-14T16:37:36.079Z,27.48
2023-02-14T16:38:44.196Z,28.03
2023-02-14T16:39:47.748Z,27.38
2023-02-14T16:40:52.439Z,26.97
2023-02-14T16:41:56.569Z,27.12
2023-02-14T16:42:59.909Z,26.93
2023-02-14T16:44:02.779Z,26.35
2023-02-14T16:45:05.360Z,26.47
2023-02-14T16:46:12.365Z,27.35
2023-02-14T16:47:17.325Z,30.22
2023-02-14T16:48:19.760Z,28.27
2023-02-14T16:49:23.729Z,27.78
2023-02-14T16:50:26.242Z,28.03
2023-02-14T16:51:33.677Z,28.27
2023-02-14T16:52:36.372Z,27.33
2023-02-14T16:53:38.794Z,26.37
2023-02-14T16:54:41.353Z,27.40
2023-02-14T16:55:43.761Z,27.48
2023-02-14T16:56:52.811Z,27.90
2023-02-14T16:57:55.278Z,28.67
2023-02-14T16:58:58.258Z,29.80
2023-02-14T17:00:00.682Z,29.10
2023-02-14T17:01:03.561Z,30.15
2023-02-14T17:02:06.416Z,28.95
2023-02-14T17:03:11.561Z,29.78
2023-02-14T17:04:14.009Z,30.92
2023-02-14T17:05:16.542Z,31.33
2023-02-14T17:06:24.338Z,29.82
2023-02-14T17:07:29.834Z,29.85
2023-02-14T17:08:32.334Z,29.38
2023-02-14T17:09:40.033Z,29.52
2023-02-14T17:10:44.811Z,28.65